Flight EZE99S

  • Submitted By: Dave Hardy
  • Departure Airport: Birmingham (EGBB)
  • Arrival Airport: Isle Of Man / Ronaldsway (EGNS)
  • Aircraft: JS41 (G-MAJA)
  • Flight Time: 00.47
  • Date Submitted: 03/04/2009
  • Status: Accepted
Flight Details
Gross Revenue:
(15 load / £ 0.00 per unit
£ 0.00
Fuel Cost:
(1003 fuel used @ 0 / unit)
£ 0.00

Flight Details

  • VATAWARE Link: -

Additional Log Information:

View Log

[2009/03/04 14:16:00]
Flight IATA:EZE99S
Pilot Number:EZE0001
Company ICAO:EZE
Aircraft Type:JS41
PAX:15
Aircraft Registration:JS41
Departing Airport: EGBB
Destination Airport: EGNS
Online: VATSIM
Route:WHI L10 KELLY
Flight Level:16000
14:16 Zero fuel Weight: 17980 Lbs, Fuel Weight: 5798 Lbs
14:16 VATSIM:EGBB 041450Z 23008KT 190V250 9999 SCT040 06/M03 Q0981
14:16 VATSIM:EGNS 041450Z 24007KT 9999 FEW020CB 04/M02 Q0980 NOSIG
14:33 Parking Brakes off
14:33 Com1 Freq=118.05
14:39 VR= 128 Knots
14:39 V2= 134 Knots
14:39 Take-off
14:39 Take off Weight: 23731 Lbs
14:39 Wind: 235 @ 007 Knots Heading: 324
14:39 POS N52 27 43 W001 45 26
14:39 N11 36 N12 36
14:39 Gear Up: 135 Knots
14:39 Flaps: at 135 Knots
14:41 Flaps: at 136 Knots
14:45 Com1 Freq=120.05
14:45 Com1 Freq=122.05
14:45 Com1 Freq=122.02
14:45 Com1 Freq=122.82
14:45 Com1 Freq=122.80
14:50 TOC
14:50 Fuel Weight: 5344 Lb
14:54 Wind:300@021 Knots Heading: 305 Ground Speed: 270 Knots Altitude 16000 ft
15:03 TOD
15:03 Fuel Weight: 5008 Lb
15:09 Wind:280@011 Knots Heading: 303 Ground Speed: 248 Knots Altitude 6177 ft
15:11 Flaps: at 217 Knots
15:13 Flaps: at 134 Knots
15:13 Flaps: at 138 Knots
15:14 Gear Down: 145 Knots
15:15 Flaps: at 126 Knots
15:15 Flaps: at 146 Knots
15:18 TouchDown:Rate -491 ft/min Speed: 120 Knots
15:18 VATSIM:EGNS 041550Z 24008KT 9999 FEW020CB 05/M02 Q0980 NOSIG
15:18 Land
15:18 Wind:247@006 Knots
15:18 Heading: 258
15:18 Flight Duration: 00:39
15:18 Landing Weight: 22784 Lbs
15:18 POS N54 04 58 W004 37 37
15:20 Parking brakes on
15:20 Block to Block Duration: 00:47
15:20 Final Fuel: 4794 Lbls
15:20 Spent Fuel: 1003 Lbls
15:20 Flight Length: 149 NM
15:20 TOD Land Length: 51 NM

Route Map